createdAt,value
2022-09-28T00:01:25.667Z,11.86
2022-09-28T00:03:57.866Z,11.86
2022-09-28T00:06:29.468Z,11.86
2022-09-28T00:08:58.288Z,11.85
2022-09-28T00:11:27.870Z,11.84
2022-09-28T00:13:59.585Z,11.85
2022-09-28T00:16:31.248Z,11.84
2022-09-28T00:19:00.431Z,11.81
2022-09-28T00:21:31.232Z,11.75
2022-09-28T00:24:14.532Z,11.67
2022-09-28T00:26:46.434Z,11.60
2022-09-28T00:29:20.333Z,11.54
2022-09-28T00:31:59.423Z,11.46
2022-09-28T00:34:36.603Z,11.38
2022-09-28T00:37:11.961Z,11.34
2022-09-28T00:39:46.265Z,11.36
2022-09-28T00:42:20.118Z,11.36
2022-09-28T00:44:56.426Z,11.32
2022-09-28T00:47:43.674Z,11.28
2022-09-28T00:50:21.203Z,11.24
2022-09-28T00:52:55.554Z,11.21
2022-09-28T00:55:37.345Z,11.17
2022-09-28T00:58:13.745Z,11.16
2022-09-28T01:00:46.301Z,11.14
2022-09-28T01:03:26.250Z,11.13
2022-09-28T01:06:04.036Z,11.12
2022-09-28T01:08:35.542Z,11.13
2022-09-28T01:11:05.242Z,11.14
2022-09-28T01:13:34.143Z,11.15
2022-09-28T01:16:12.102Z,11.18
2022-09-28T01:18:53.197Z,11.20
2022-09-28T01:21:23.366Z,11.19
2022-09-28T01:24:10.338Z,11.18
2022-09-28T01:27:04.952Z,11.18
2022-09-28T01:29:43.628Z,11.12
2022-09-28T01:32:34.896Z,11.06
2022-09-28T01:35:08.592Z,11.00
2022-09-28T01:37:44.096Z,11.02
2022-09-28T01:40:15.626Z,11.09
2022-09-28T01:42:46.977Z,11.10
2022-09-28T01:45:22.515Z,11.07
2022-09-28T01:47:56.804Z,11.11
2022-09-28T01:50:28.256Z,11.18
2022-09-28T01:53:02.833Z,11.19
2022-09-28T01:55:37.083Z,11.18
2022-09-28T01:58:16.974Z,11.17
2022-09-28T02:00:52.315Z,11.19
2022-09-28T02:03:29.165Z,11.22
2022-09-28T02:06:05.652Z,11.27
2022-09-28T02:08:37.540Z,11.29
2022-09-28T02:11:10.898Z,11.33
2022-09-28T02:13:42.731Z,11.36
2022-09-28T02:16:16.876Z,11.36
2022-09-28T02:18:45.940Z,11.34
2022-09-28T02:21:18.581Z,11.33
2022-09-28T02:23:54.445Z,11.34
2022-09-28T02:26:27.001Z,11.39
2022-09-28T02:28:55.290Z,11.43
2022-09-28T02:31:24.054Z,11.45
2022-09-28T02:33:53.886Z,11.41
2022-09-28T02:36:24.520Z,11.31
2022-09-28T02:38:53.207Z,11.26
2022-09-28T02:41:41.546Z,11.21
2022-09-28T02:44:39.082Z,11.23
2022-09-28T02:47:21.898Z,11.33
2022-09-28T02:49:58.581Z,11.43
2022-09-28T02:52:49.591Z,11.47
2022-09-28T02:55:25.983Z,11.52
2022-09-28T02:58:12.609Z,11.54
2022-09-28T03:00:47.230Z,11.51
2022-09-28T03:03:25.907Z,11.49
2022-09-28T03:06:01.452Z,11.47
2022-09-28T03:08:42.564Z,11.46
2022-09-28T03:11:17.776Z,11.45
2022-09-28T03:13:49.162Z,11.43
2022-09-28T03:16:20.058Z,11.44
2022-09-28T03:18:49.923Z,11.44
2022-09-28T03:21:18.662Z,11.41
2022-09-28T03:23:47.448Z,11.36
2022-09-28T03:26:19.367Z,11.31
2022-09-28T03:28:47.724Z,11.27
2022-09-28T03:31:20.531Z,11.27
2022-09-28T03:33:50.720Z,11.26
2022-09-28T03:36:19.175Z,11.24
2022-09-28T03:38:47.478Z,11.24
2022-09-28T03:41:16.201Z,11.26
2022-09-28T03:43:44.685Z,11.24
2022-09-28T03:46:28.183Z,11.22
2022-09-28T03:48:59.021Z,11.21
2022-09-28T03:51:27.269Z,11.16
2022-09-28T03:53:56.934Z,11.09
2022-09-28T03:56:25.157Z,11.02
2022-09-28T03:58:53.637Z,10.96
2022-09-28T04:01:22.305Z,10.92
2022-09-28T04:03:55.408Z,10.91
2022-09-28T04:06:24.819Z,10.87
2022-09-28T04:08:53.684Z,10.84
2022-09-28T04:11:23.581Z,10.82
2022-09-28T04:13:51.856Z,10.81
2022-09-28T04:16:20.307Z,10.81
2022-09-28T04:19:08.592Z,10.76
2022-09-28T04:21:44.323Z,10.69
2022-09-28T04:24:19.687Z,10.65
2022-09-28T04:26:48.890Z,10.61
2022-09-28T04:29:18.526Z,10.62
2022-09-28T04:31:57.056Z,10.61
2022-09-28T04:34:38.691Z,10.62
2022-09-28T04:37:10.255Z,10.62
2022-09-28T04:39:41.481Z,10.66
2022-09-28T04:42:12.227Z,10.75
2022-09-28T04:44:40.656Z,10.74
2022-09-28T04:47:13.908Z,10.72
2022-09-28T04:50:12.526Z,10.70
2022-09-28T04:53:01.687Z,10.66
2022-09-28T04:55:31.919Z,10.63
2022-09-28T04:58:03.836Z,10.57
2022-09-28T05:00:34.993Z,10.50
2022-09-28T05:03:10.347Z,10.49
2022-09-28T05:05:57.299Z,10.46
2022-09-28T05:08:46.529Z,10.44
2022-09-28T05:11:15.253Z,10.42
2022-09-28T05:13:50.269Z,10.41
2022-09-28T05:16:20.054Z,10.37
2022-09-28T05:19:09.898Z,10.35
2022-09-28T05:21:41.121Z,10.31
2022-09-28T05:24:11.069Z,10.25
2022-09-28T05:26:40.134Z,10.19
2022-09-28T05:29:11.005Z,10.19
2022-09-28T05:32:19.810Z,10.17
2022-09-28T05:35:10.922Z,10.19
2022-09-28T05:37:46.323Z,10.16
2022-09-28T05:40:15.434Z,10.15
2022-09-28T05:42:44.381Z,10.15
2022-09-28T05:45:14.928Z,10.14
2022-09-28T05:47:46.046Z,10.13
2022-09-28T05:50:17.133Z,10.12
2022-09-28T05:52:49.688Z,10.12
2022-09-28T05:55:18.219Z,10.12
2022-09-28T05:57:50.036Z,10.11
2022-09-28T06:00:21.027Z,10.12
2022-09-28T06:03:02.583Z,10.08
2022-09-28T06:05:36.625Z,10.07
2022-09-28T06:08:07.700Z,10.10
2022-09-28T06:10:36.172Z,10.12
2022-09-28T06:13:04.781Z,10.13
2022-09-28T06:15:38.873Z,10.11
2022-09-28T06:18:13.442Z,10.06
2022-09-28T06:21:00.794Z,10.02
2022-09-28T06:23:35.625Z,10.00
2022-09-28T06:26:04.755Z,10.00
2022-09-28T06:28:34.335Z,10.02
2022-09-28T06:31:03.196Z,10.07
2022-09-28T06:33:32.631Z,10.14
2022-09-28T06:36:04.315Z,10.20
2022-09-28T06:38:34.151Z,10.25
2022-09-28T06:41:02.635Z,10.31
2022-09-28T06:43:34.261Z,10.37
2022-09-28T06:46:14.667Z,10.41
2022-09-28T06:48:52.695Z,10.46
2022-09-28T06:51:32.851Z,10.50
2022-09-28T06:54:25.400Z,10.53
2022-09-28T06:57:09.347Z,10.58
2022-09-28T06:59:39.665Z,10.61
2022-09-28T07:02:12.290Z,10.65
2022-09-28T07:04:59.301Z,10.72
2022-09-28T07:07:57.139Z,10.80
2022-09-28T07:10:48.103Z,10.84
2022-09-28T07:13:51.770Z,10.94
2022-09-28T07:16:27.226Z,11.14
2022-09-28T07:19:00.007Z,11.25
2022-09-28T07:21:30.673Z,11.30
2022-09-28T07:24:04.086Z,11.37
2022-09-28T07:26:38.527Z,11.39
2022-09-28T07:29:22.068Z,11.44
2022-09-28T07:32:02.655Z,11.46
2022-09-28T07:34:58.074Z,11.44
2022-09-28T07:38:02.971Z,11.40
2022-09-28T07:40:52.955Z,11.41
2022-09-28T07:43:22.569Z,11.52
2022-09-28T07:45:54.405Z,11.61
2022-09-28T07:48:22.875Z,11.66
2022-09-28T07:51:13.105Z,11.72
2022-09-28T07:53:53.888Z,11.72
2022-09-28T07:56:37.816Z,11.74
2022-09-28T07:59:17.218Z,11.74
2022-09-28T08:02:22.556Z,11.74
2022-09-28T08:04:51.319Z,11.70
2022-09-28T08:07:23.876Z,11.68
2022-09-28T08:10:01.775Z,11.67
2022-09-28T08:12:30.457Z,11.67
2022-09-28T08:15:17.949Z,11.72
2022-09-28T08:18:01.937Z,11.82
2022-09-28T08:20:51.592Z,11.89
2022-09-28T08:23:20.740Z,11.98
2022-09-28T08:25:51.961Z,12.07
2022-09-28T08:28:22.331Z,12.18
2022-09-28T08:30:53.913Z,12.24
2022-09-28T08:33:30.202Z,12.32
2022-09-28T08:36:17.672Z,12.49
2022-09-28T08:39:23.995Z,12.65
2022-09-28T08:42:32.384Z,12.83
2022-09-28T08:45:27.480Z,12.95
2022-09-28T08:48:48.149Z,13.00
2022-09-28T08:51:44.255Z,13.01
2022-09-28T08:54:33.476Z,13.09
2022-09-28T08:57:10.872Z,13.21
2022-09-28T08:59:49.343Z,13.25
2022-09-28T09:02:26.929Z,13.30
2022-09-28T09:05:07.975Z,13.50
2022-09-28T09:08:15.223Z,13.92
2022-09-28T09:10:52.642Z,14.33
2022-09-28T09:13:58.978Z,14.57
2022-09-28T09:16:40.124Z,14.61
2022-09-28T09:19:41.408Z,14.98
2022-09-28T09:22:38.441Z,15.60
2022-09-28T09:25:19.768Z,16.26
2022-09-28T09:28:12.623Z,16.80
2022-09-28T09:30:50.950Z,17.18
2022-09-28T09:33:51.709Z,17.34
2022-09-28T09:36:56.412Z,17.31
2022-09-28T09:39:58.748Z,17.17
2022-09-28T09:43:20.069Z,16.97
2022-09-28T09:46:14.605Z,16.83
2022-09-28T09:49:13.376Z,16.81
2022-09-28T09:51:45.650Z,16.69
2022-09-28T09:54:22.438Z,16.59
2022-09-28T09:56:58.302Z,16.57
2022-09-28T09:59:48.567Z,16.35
2022-09-28T10:02:27.357Z,16.14
2022-09-28T10:05:19.612Z,16.11
2022-09-28T10:07:54.743Z,16.01
2022-09-28T10:10:28.163Z,15.79
2022-09-28T10:13:09.596Z,15.61
2022-09-28T10:15:40.703Z,15.50
2022-09-28T10:18:32.368Z,15.37
2022-09-28T10:21:23.720Z,15.25
2022-09-28T10:24:23.124Z,15.18
2022-09-28T10:26:55.217Z,15.29
2022-09-28T10:29:27.430Z,15.52
2022-09-28T10:31:56.599Z,15.61
2022-09-28T10:34:29.545Z,15.59
2022-09-28T10:37:08.795Z,15.62
2022-09-28T10:39:56.481Z,15.89
2022-09-28T10:42:30.150Z,16.01
2022-09-28T10:45:04.473Z,15.95
2022-09-28T10:47:37.347Z,15.82
2022-09-28T10:50:31.429Z,15.63
2022-09-28T10:53:19.514Z,15.39
2022-09-28T10:56:21.993Z,15.20
2022-09-28T10:58:57.584Z,15.02
2022-09-28T11:01:39.422Z,14.88
2022-09-28T11:04:22.627Z,14.81
2022-09-28T11:06:52.543Z,14.81
2022-09-28T11:09:30.782Z,15.03
2022-09-28T11:12:08.026Z,15.36
2022-09-28T11:14:42.749Z,15.59
2022-09-28T11:17:19.011Z,15.54
2022-09-28T11:20:02.135Z,15.44
2022-09-28T11:22:43.443Z,15.35
2022-09-28T11:25:24.067Z,15.23
2022-09-28T11:28:03.939Z,15.10
2022-09-28T11:30:38.248Z,14.94
2022-09-28T11:33:32.774Z,14.81
2022-09-28T11:36:21.625Z,14.66
2022-09-28T11:38:58.783Z,14.48
2022-09-28T11:42:16.201Z,14.34
2022-09-28T11:44:48.783Z,14.30
2022-09-28T11:47:42.778Z,14.58
2022-09-28T11:50:27.489Z,14.79
2022-09-28T11:53:10.975Z,14.74
2022-09-28T11:55:45.608Z,14.71
2022-09-28T11:58:22.552Z,14.81
2022-09-28T12:00:56.344Z,14.87
2022-09-28T12:03:40.723Z,14.87
2022-09-28T12:06:16.272Z,14.86
2022-09-28T12:08:53.198Z,14.86
2022-09-28T12:11:51.960Z,14.74
2022-09-28T12:14:29.761Z,14.71
2022-09-28T12:17:07.713Z,14.80
2022-09-28T12:19:42.236Z,14.89
2022-09-28T12:22:43.007Z,14.95
2022-09-28T12:25:18.733Z,15.04
2022-09-28T12:27:53.610Z,15.06
2022-09-28T12:30:27.574Z,15.03
2022-09-28T12:33:01.848Z,14.96
2022-09-28T12:35:43.702Z,14.85
2022-09-28T12:38:30.550Z,14.77
2022-09-28T12:41:10.818Z,14.71
2022-09-28T12:44:04.431Z,14.65
2022-09-28T12:46:48.328Z,14.54
2022-09-28T12:52:36.012Z,14.35
2022-09-28T12:55:24.551Z,14.28
2022-09-28T12:58:08.327Z,14.27
2022-09-28T13:00:55.392Z,14.28
2022-09-28T13:03:52.900Z,14.32
2022-09-28T13:06:45.246Z,14.29
2022-09-28T13:09:22.062Z,14.27
2022-09-28T13:12:04.172Z,14.33
2022-09-28T13:14:56.180Z,14.51
2022-09-28T13:17:39.093Z,14.67
2022-09-28T13:20:25.174Z,14.69
2022-09-28T13:23:02.320Z,14.70
2022-09-28T13:25:35.652Z,14.74
2022-09-28T13:28:06.937Z,14.75
2022-09-28T13:30:38.984Z,14.79
2022-09-28T13:33:15.527Z,14.78
2022-09-28T13:35:44.461Z,14.75
2022-09-28T13:38:49.107Z,14.72
2022-09-28T13:41:21.717Z,14.67
2022-09-28T13:44:22.012Z,14.62
2022-09-28T13:47:10.644Z,14.56
2022-09-28T13:49:46.131Z,14.53
2022-09-28T13:52:39.732Z,14.47
2022-09-28T13:55:32.349Z,14.38
2022-09-28T13:58:03.940Z,14.31
2022-09-28T14:00:38.045Z,14.25
2022-09-28T14:03:24.848Z,14.16
2022-09-28T14:06:21.052Z,14.10
2022-09-28T14:09:08.509Z,14.05
2022-09-28T14:11:55.194Z,14.01
2022-09-28T14:14:44.700Z,13.98
2022-09-28T14:17:49.637Z,13.95
2022-09-28T14:20:22.864Z,13.89
2022-09-28T14:23:14.514Z,13.85
2022-09-28T14:25:45.439Z,13.82
2022-09-28T14:28:40.243Z,13.78
2022-09-28T14:31:21.601Z,13.76
2022-09-28T14:33:58.037Z,13.75
2022-09-28T14:36:50.879Z,13.76
2022-09-28T14:39:46.289Z,13.81
2022-09-28T14:42:19.034Z,13.87
2022-09-28T14:45:19.624Z,13.86
2022-09-28T14:48:12.259Z,13.81
2022-09-28T14:50:42.310Z,13.74
2022-09-28T14:53:15.896Z,13.69
2022-09-28T14:55:50.557Z,13.64
2022-09-28T14:58:53.155Z,13.60
2022-09-28T15:01:40.761Z,13.56
2022-09-28T15:04:13.857Z,13.51
2022-09-28T15:06:47.123Z,13.49
2022-09-28T15:09:31.320Z,13.44
2022-09-28T15:12:01.348Z,13.38
2022-09-28T15:14:33.833Z,13.35
2022-09-28T15:17:11.763Z,13.33
2022-09-28T15:19:51.669Z,13.30
2022-09-28T15:22:22.268Z,13.27
2022-09-28T15:25:02.026Z,13.24
2022-09-28T15:27:36.445Z,13.21
2022-09-28T15:30:26.212Z,13.19
2022-09-28T15:33:16.892Z,13.15
2022-09-28T15:35:49.844Z,13.14
2022-09-28T15:38:19.141Z,13.13
2022-09-28T15:40:50.528Z,13.14
2022-09-28T15:43:26.651Z,13.13
2022-09-28T15:46:03.974Z,13.13
2022-09-28T15:48:40.717Z,13.11
2022-09-28T15:51:12.675Z,13.06
2022-09-28T15:53:47.197Z,13.01
2022-09-28T15:56:15.962Z,12.95
2022-09-28T15:59:04.537Z,12.91
2022-09-28T16:01:37.435Z,12.87
2022-09-28T16:04:40.117Z,12.84
2022-09-28T16:07:28.401Z,12.79
2022-09-28T16:10:00.281Z,12.72
2022-09-28T16:12:40.980Z,12.67
2022-09-28T16:15:19.978Z,12.61
2022-09-28T16:17:53.811Z,12.53
2022-09-28T16:20:28.718Z,12.45
2022-09-28T16:23:05.397Z,12.38
2022-09-28T16:25:38.569Z,12.30
2022-09-28T16:28:24.689Z,12.25
2022-09-28T16:31:02.773Z,12.29
2022-09-28T16:33:51.625Z,12.32
2022-09-28T16:36:21.617Z,12.29
2022-09-28T16:38:50.735Z,12.24
2022-09-28T16:41:23.736Z,12.15
2022-09-28T16:43:56.402Z,12.09
2022-09-28T16:46:31.282Z,12.05
2022-09-28T16:49:02.763Z,11.99
2022-09-28T16:51:34.651Z,11.97
2022-09-28T16:54:34.098Z,11.95
2022-09-28T16:57:05.374Z,11.96
2022-09-28T16:59:37.975Z,12.02
2022-09-28T17:02:35.353Z,12.07
2022-09-28T17:05:15.348Z,12.00
2022-09-28T17:07:47.931Z,11.95
2022-09-28T17:10:20.970Z,11.98
2022-09-28T17:12:52.124Z,11.98
2022-09-28T17:15:22.073Z,11.95
2022-09-28T17:17:50.849Z,11.87
2022-09-28T17:20:26.559Z,11.81
2022-09-28T17:23:00.425Z,11.76
2022-09-28T17:25:36.489Z,11.73
2022-09-28T17:28:07.167Z,11.72
2022-09-28T17:30:39.355Z,11.75
2022-09-28T17:33:12.835Z,11.79
2022-09-28T17:35:43.954Z,11.86
2022-09-28T17:38:16.675Z,11.88
2022-09-28T17:40:47.664Z,11.83
2022-09-28T17:43:21.882Z,11.76
2022-09-28T17:45:54.060Z,11.73
2022-09-28T17:48:26.217Z,11.74
2022-09-28T17:51:02.127Z,11.71
2022-09-28T17:53:37.106Z,11.67
2022-09-28T17:56:09.437Z,11.68
2022-09-28T17:58:39.993Z,11.74
2022-09-28T18:01:11.473Z,11.70
2022-09-28T18:03:40.135Z,11.60
2022-09-28T18:06:22.358Z,11.50
2022-09-28T18:08:51.522Z,11.41
2022-09-28T18:11:21.228Z,11.34
2022-09-28T18:13:50.211Z,11.32
2022-09-28T18:16:20.156Z,11.36
2022-09-28T18:18:49.411Z,11.39
2022-09-28T18:21:19.330Z,11.41
2022-09-28T18:23:49.175Z,11.45
2022-09-28T18:26:19.181Z,11.41
2022-09-28T18:28:48.506Z,11.35
2022-09-28T18:31:19.426Z,11.29
2022-09-28T18:33:53.482Z,11.23
2022-09-28T18:36:27.421Z,11.21
2022-09-28T18:39:03.426Z,11.20
2022-09-28T18:41:33.004Z,11.15
2022-09-28T18:44:03.342Z,11.05
2022-09-28T18:46:36.202Z,10.94
2022-09-28T18:49:05.701Z,10.84
2022-09-28T18:51:34.548Z,10.76
2022-09-28T18:54:06.616Z,10.68
2022-09-28T18:56:37.565Z,10.57
2022-09-28T18:59:17.432Z,10.49
2022-09-28T19:01:46.435Z,10.43
2022-09-28T19:04:15.133Z,10.40
2022-09-28T19:06:44.527Z,10.38
2022-09-28T19:09:13.688Z,10.39
2022-09-28T19:11:42.266Z,10.39
2022-09-28T19:14:14.379Z,10.42
2022-09-28T19:16:44.528Z,10.41
2022-09-28T19:19:15.042Z,10.36
2022-09-28T19:21:44.332Z,10.31
2022-09-28T19:24:14.954Z,10.29
2022-09-28T19:26:45.966Z,10.24
2022-09-28T19:29:15.168Z,10.16
2022-09-28T19:31:44.026Z,10.09
2022-09-28T19:34:14.317Z,10.10
2022-09-28T19:36:43.645Z,10.16
2022-09-28T19:39:15.526Z,10.22
2022-09-28T19:41:48.795Z,10.23
2022-09-28T19:44:23.950Z,10.15
2022-09-28T19:46:54.043Z,10.05
2022-09-28T19:49:24.261Z,9.97
2022-09-28T19:52:12.045Z,9.91
2022-09-28T19:54:44.502Z,9.84
2022-09-28T19:57:15.185Z,9.80
2022-09-28T19:59:48.469Z,9.82
2022-09-28T20:02:22.243Z,9.83
2022-09-28T20:04:50.972Z,9.82
2022-09-28T20:07:19.334Z,9.81
2022-09-28T20:09:47.760Z,9.80
2022-09-28T20:12:16.296Z,9.79
2022-09-28T20:14:45.544Z,9.74
2022-09-28T20:17:14.100Z,9.67
2022-09-28T20:19:42.617Z,9.61
2022-09-28T20:22:18.115Z,9.56
2022-09-28T20:24:46.697Z,9.51
2022-09-28T20:27:15.257Z,9.47
2022-09-28T20:29:45.517Z,9.42
2022-09-28T20:32:14.289Z,9.36
2022-09-28T20:34:43.481Z,9.31
2022-09-28T20:37:17.081Z,9.24
2022-09-28T20:39:46.767Z,9.21
2022-09-28T20:42:16.057Z,9.17
2022-09-28T20:44:45.672Z,9.10
2022-09-28T20:47:14.261Z,9.10
2022-09-28T20:49:54.318Z,9.08
2022-09-28T20:52:23.310Z,9.16
2022-09-28T20:54:52.166Z,9.18
2022-09-28T20:57:20.930Z,9.12
2022-09-28T20:59:54.506Z,9.06
2022-09-28T21:02:24.736Z,9.02
2022-09-28T21:04:53.792Z,8.97
2022-09-28T21:07:22.383Z,8.93
2022-09-28T21:09:51.642Z,8.92
2022-09-28T21:12:20.273Z,8.95
2022-09-28T21:14:49.227Z,9.05
2022-09-28T21:17:17.868Z,9.13
2022-09-28T21:19:51.544Z,9.13
2022-09-28T21:22:20.238Z,9.07
2022-09-28T21:24:49.076Z,9.04
2022-09-28T21:27:17.937Z,9.05
2022-09-28T21:29:46.402Z,9.02
2022-09-28T21:32:14.947Z,8.98
2022-09-28T21:34:49.922Z,9.00
2022-09-28T21:37:18.293Z,9.06
2022-09-28T21:39:46.807Z,9.07
2022-09-28T21:42:15.475Z,9.03
2022-09-28T21:44:47.012Z,8.93
2022-09-28T21:47:15.889Z,8.93
2022-09-28T21:49:49.616Z,9.00
2022-09-28T21:52:18.333Z,9.03
2022-09-28T21:54:46.968Z,9.05
2022-09-28T21:57:15.399Z,9.07
2022-09-28T21:59:47.056Z,9.08
2022-09-28T22:02:15.621Z,9.02
2022-09-28T22:04:58.900Z,8.93
2022-09-28T22:07:28.032Z,8.90
2022-09-28T22:09:56.822Z,8.90
2022-09-28T22:12:25.563Z,8.86
2022-09-28T22:15:03.574Z,8.82
2022-09-28T22:17:31.437Z,8.82
2022-09-28T22:20:00.278Z,8.81
2022-09-28T22:22:29.340Z,8.76
2022-09-28T22:24:57.855Z,8.71
2022-09-28T22:27:28.379Z,8.67
2022-09-28T22:29:57.046Z,8.64
2022-09-28T22:32:26.902Z,8.66
2022-09-28T22:34:55.319Z,8.66
2022-09-28T22:37:26.479Z,8.66
2022-09-28T22:39:55.315Z,8.60
2022-09-28T22:42:23.887Z,8.54
2022-09-28T22:44:52.347Z,8.48
2022-09-28T22:47:21.062Z,8.41
2022-09-28T22:49:49.520Z,8.38
2022-09-28T22:52:17.917Z,8.40
2022-09-28T22:54:47.614Z,8.40
2022-09-28T22:57:16.076Z,8.36
2022-09-28T22:59:44.739Z,8.32
2022-09-28T23:02:15.024Z,8.32
2022-09-28T23:04:43.648Z,8.34
2022-09-28T23:07:15.245Z,8.34
2022-09-28T23:09:43.786Z,8.35
2022-09-28T23:12:14.835Z,8.34
2022-09-28T23:14:43.267Z,8.36
2022-09-28T23:17:14.557Z,8.37
2022-09-28T23:19:43.195Z,8.38
2022-09-28T23:22:12.787Z,8.38
2022-09-28T23:24:41.237Z,8.37
2022-09-28T23:27:09.881Z,8.37
2022-09-28T23:29:45.747Z,8.35
2022-09-28T23:32:15.969Z,8.30
2022-09-28T23:34:44.496Z,8.23
2022-09-28T23:37:13.418Z,8.16
2022-09-28T23:39:43.386Z,8.11
2022-09-28T23:42:13.067Z,8.07
2022-09-28T23:44:41.644Z,8.08
2022-09-28T23:47:10.199Z,8.07
2022-09-28T23:49:38.797Z,8.04
2022-09-28T23:52:09.383Z,8.02
2022-09-28T23:54:38.013Z,8.01
2022-09-28T23:57:07.587Z,8.07
2022-09-28T23:59:36.224Z,8.13
